CW3846 Weather Reports


Display with metric or nautical units.
time (UTC)temp
F
wind
direction
speed
MPH
gust
MPH
rain 1hr
in
rain 24hr
in
rain mn
in
humidity
%
barometer
mb
20260505204542 79 0 0.0 1.0 0.00 0.00 0.00 19 1011.1
20260505204029 78 0 0.0 1.0 0.00 0.00 0.00 20 1011.1
20260505203531 79 0 0.0 1.0 0.00 0.00 0.00 20 1011.3
20260505203045 80 0 0.0 3.0 0.00 0.00 0.00 20 1011.3
20260505202531 80 0 0.0 3.0 0.00 0.00 0.00 20 1011.3
20260505202032 80 0 0.0 3.0 0.00 0.00 0.00 19 1011.3
20260505201554 80 0 0.0 3.0 0.00 0.00 0.00 20 1011.1
20260505201030 79 0 0.0 2.0 0.00 0.00 0.00 20 1011.2
20260505200532 79 0 0.0 2.0 0.00 0.00 0.00 20 1011.3
20260505200056 79 0 0.0 3.0 0.00 0.00 0.00 19 1011.4
20260505195531 79 0 0.0 3.0 0.00 0.00 0.00 19 1011.4
20260505195029 79 254 0.0 3.0 0.00 0.00 0.00 19 1011.3
20260505194544 79 257 0.0 2.0 0.00 0.00 0.00 19 1011.5
20260505194032 79 0 0.0 3.0 0.00 0.00 0.00 19 1011.4
20260505193530 79 0 0.0 3.0 0.00 0.00 0.00 19 1011.4
20260505193042 79 0 0.0 3.0 0.00 0.00 0.00 20 1011.4
20260505192612 78 205 0.0 3.0 0.00 0.00 0.00 21 1011.4
20260505192032 78 0 0.0 2.0 0.00 0.00 0.00 21 1011.5
20260505191547 78 0 0.0 2.0 0.00 0.00 0.00 21 1011.5
20260505191031 78 0 0.0 1.0 0.00 0.00 0.00 21 1011.5
20260505190532 78 0 0.0 1.0 0.00 0.00 0.00 21 1011.6
20260505190046 77 0 0.0 1.0 0.00 0.00 0.00 21 1011.8
20260505185532 77 0 0.0 1.0 0.00 0.00 0.00 22 1011.8
20260505185031 77 0 0.0 7.0 0.00 0.00 0.00 23 1011.8
20260505184545 77 0 0.0 7.0 0.00 0.00 0.00 23 1011.8
20260505184031 76 0 0.0 2.0 0.00 0.00 0.00 23 1011.7
20260505183531 75 0 0.0 2.0 0.00 0.00 0.00 25 1011.9
20260505183048 75 0 0.0 3.0 0.00 0.00 0.00 24 1011.9
20260505182533 75 0 0.0 3.0 0.00 0.00 0.00 25 1012.1
20260505182031 75 0 0.0 3.0 0.00 0.00 0.00 25 1012.0
20260505181544 75 0 0.0 3.0 0.00 0.00 0.00 24 1012.1
20260505181033 75 203 0.0 1.0 0.00 0.00 0.00 25 1012.0
20260505180533 74 0 0.0 1.0 0.00 0.00 0.00 25 1012.1
20260505180041 74 0 0.0 1.0 0.00 0.00 0.00 26 1012.2
20260505175532 74 0 0.0 1.0 0.00 0.00 0.00 26 1012.2
20260505175032 74 0 0.0 1.0 0.00 0.00 0.00 27 1012.1
20260505174552 73 0 0.0 1.0 0.00 0.00 0.00 27 1012.1
20260505174032 73 0 0.0 0.0 0.00 0.00 0.00 27 1012.1
20260505173533 73 0 0.0 0.0 0.00 0.00 0.00 26 1012.1
20260505173048 73 0 0.0 0.0 0.00 0.00 0.00 27 1012.0
20260505172529 72 0 0.0 0.0 0.00 0.00 0.00 27 1012.0
20260505172029 72 0 0.0 0.0 0.00 0.00 0.00 27 1012.1
20260505171543 72 0 0.0 0.0 0.00 0.00 0.00 27 1012.0
20260505171029 72 0 0.0 0.0 0.00 0.00 0.00 29 1012.0
20260505170529 72 0 0.0 0.0 0.00 0.00 0.00 28 1012.0
20260505170043 72 0 0.0 0.0 0.00 0.00 0.00 28 1012.0
20260505165530 72 0 0.0 0.0 0.00 0.00 0.00 29 1011.9
20260505165031 71 0 0.0 0.0 0.00 0.00 0.00 29 1012.0
20260505164546 71 0 0.0 3.0 0.00 0.00 0.00 30 1012.0
20260505164032 70 0 0.0 3.0 0.00 0.00 0.00 30 1012.0
20260505163531 69 0 0.0 0.0 0.00 0.00 0.00 32 1012.0
20260505163045 69 0 0.0 0.0 0.00 0.00 0.00 31 1012.1
20260505162530 69 0 0.0 0.0 0.00 0.00 0.00 30 1012.1
20260505162029 69 0 0.0 0.0 0.00 0.00 0.00 31 1012.1
20260505161558 68 0 0.0 0.0 0.00 0.00 0.00 32 1012.2
20260505161029 68 0 0.0 0.0 0.00 0.00 0.00 31 1012.1
20260505160532 68 0 0.0 0.0 0.00 0.00 0.00 31 1012.2
20260505153048 67 0 0.0 0.0 0.00 0.00 0.00 34 1012.1
20260505152531 67 0 0.0 0.0 0.00 0.00 0.00 34 1012.1
20260505152033 67 0 0.0 0.0 0.00 0.00 0.00 34 1012.2
20260505151546 67 0 0.0 0.0 0.00 0.00 0.00 34 1012.2
20260505151031 67 0 0.0 0.0 0.00 0.00 0.00 34 1012.2
20260505150529 67 0 0.0 0.0 0.00 0.00 0.00 35 1012.1
20260505140529 65 0 0.0 0.0 0.00 0.00 0.00 40 1011.8
20260505125031 64 0 0.0 0.0 0.00 0.00 0.00 52 1011.3
20260505124548 64 0 0.0 0.0 0.00 0.00 0.00 52 1011.2
20260505124032 64 0 0.0 0.0 0.00 0.00 0.00 52 1011.2
20260505123531 64 0 0.0 0.0 0.00 0.00 0.00 52 1011.1
20260505123042 64 0 0.0 0.0 0.00 0.00 0.00 52 1011.2
20260505122532 64 0 0.0 0.0 0.00 0.00 0.00 52 1011.0
20260505122032 64 0 0.0 0.0 0.00 0.00 0.00 52 1011.1
20260505121542 64 0 0.0 0.0 0.00 0.00 0.00 52 1011.1
20260505121031 65 0 0.0 0.0 0.00 0.00 0.00 52 1011.0
20260505120528 65 0 0.0 0.0 0.00 0.00 0.00 51 1011.1
20260505120051 65 0 0.0 0.0 0.00 0.00 0.00 50 1010.9
20260505115528 65 0 0.0 0.0 0.00 0.00 0.00 50 1011.0
20260505115032 65 0 0.0 0.0 0.00 0.00 0.00 49 1010.9
20260505114547 65 0 0.0 0.0 0.00 0.00 0.00 49 1010.8
20260505114034 66 0 0.0 0.0 0.00 0.00 0.00 49 1010.8
20260505113533 66 0 0.0 0.0 0.00 0.00 0.00 48 1010.8
20260505113041 66 0 0.0 0.0 0.00 0.00 0.00 48 1010.9
20260505112533 66 0 0.0 0.0 0.00 0.00 0.00 48 1010.9
20260505112031 66 0 0.0 0.0 0.00 0.00 0.00 47 1010.7
20260505111539 66 0 0.0 0.0 0.00 0.00 0.00 48 1010.7
20260505111031 66 0 0.0 0.0 0.00 0.00 0.00 47 1010.6
20260505110532 66 0 0.0 0.0 0.00 0.00 0.00 47 1010.6
20260505102034 67 0 0.0 0.0 0.00 0.00 0.00 44 1011.1
20260505101543 67 0 0.0 0.0 0.00 0.00 0.00 44 1011.0
20260505101032 67 0 0.0 0.0 0.00 0.00 0.00 43 1011.1
20260505100529 67 0 0.0 0.0 0.00 0.00 0.00 43 1011.1
20260505100041 67 0 0.0 0.0 0.00 0.00 0.00 43 1011.2
20260505095529 67 0 0.0 0.0 0.00 0.00 0.00 43 1011.2
20260505095031 67 0 0.0 0.0 0.00 0.00 0.00 43 1011.3
20260505094545 67 0 0.0 0.0 0.00 0.00 0.00 43 1011.4
20260505094029 68 0 0.0 1.0 0.00 0.00 0.00 43 1011.5
20260505093531 68 0 0.0 1.0 0.00 0.00 0.00 43 1011.5
20260505093045 68 0 0.0 1.0 0.00 0.00 0.00 43 1011.5
20260505092531 68 0 0.0 1.0 0.00 0.00 0.00 43 1011.6
20260505092029 68 0 0.0 1.0 0.00 0.00 0.00 42 1011.5
20260505091552 68 0 0.0 1.0 0.00 0.00 0.00 40 1011.6
20260505091028 68 0 0.0 1.0 0.00 0.00 0.00 40 1011.7
20260505090531 69 0 0.0 1.0 0.00 0.00 0.00 40 1011.8
20260505090048 69 0 0.0 0.0 0.00 0.00 0.00 40 1011.7
20260505085529 69 0 0.0 0.0 0.00 0.00 0.00 39 1011.8
20260505085031 69 0 0.0 0.0 0.00 0.00 0.00 39 1011.8
20260505084548 69 0 0.0 1.0 0.00 0.00 0.00 38 1011.8
20260505084031 69 0 0.0 1.0 0.00 0.00 0.00 38 1011.8
20260505083533 69 0 0.0 1.0 0.00 0.00 0.00 38 1011.9
20260505083041 69 0 0.0 1.0 0.00 0.00 0.00 37 1011.9
20260505082530 69 0 0.0 1.0 0.00 0.00 0.00 37 1011.9
20260505082030 69 0 0.0 1.0 0.00 0.00 0.00 37 1012.0
20260505081538 69 0 0.0 2.0 0.00 0.00 0.00 36 1012.2
20260505081031 69 0 0.0 2.0 0.00 0.00 0.00 36 1012.2
20260505080528 70 0 0.0 2.0 0.00 0.00 0.00 34 1012.2
20260505080053 70 0 0.0 0.0 0.00 0.00 0.00 33 1012.2
20260505075528 70 0 0.0 0.0 0.00 0.00 0.00 32 1012.1
20260505075032 70 0 0.0 0.0 0.00 0.00 0.00 31 1012.1
20260505074544 70 0 0.0 3.0 0.00 0.00 0.00 31 1012.1
20260505074030 70 0 0.0 3.0 0.00 0.00 0.00 30 1012.2
20260505073531 70 0 0.0 0.0 0.00 0.00 0.00 30 1012.1
20260505073046 70 0 0.0 0.0 0.00 0.00 0.00 30 1012.1
20260505072531 70 0 0.0 0.0 0.00 0.00 0.00 30 1012.0
20260505072031 70 0 0.0 0.0 0.00 0.00 0.00 31 1011.9
20260505071540 71 0 0.0 0.0 0.00 0.00 0.00 30 1011.9
20260505071031 71 0 0.0 0.0 0.00 0.00 0.00 30 1011.9
20260505070529 71 0 0.0 0.0 0.00 0.00 0.00 30 1011.8
20260505070053 71 0 0.0 0.0 0.00 0.00 0.00 30 1011.8
20260505065530 71 0 0.0 0.0 0.00 0.00 0.00 30 1011.8
20260505065028 71 0 0.0 1.0 0.00 0.00 0.00 30 1011.8
20260505064546 71 0 0.0 1.0 0.00 0.00 0.00 29 1011.9
20260505064029 71 0 0.0 1.0 0.00 0.00 0.00 29 1012.0
20260505063532 71 0 0.0 1.0 0.00 0.00 0.00 29 1011.9
20260505063101 72 0 0.0 1.0 0.00 0.00 0.00 29 1011.9
20260505062530 72 0 0.0 1.0 0.00 0.00 0.00 28 1012.0
20260505062030 72 0 0.0 1.0 0.00 0.00 0.00 28 1011.9
20260505061556 72 0 0.0 0.0 0.00 0.00 0.00 28 1011.8
20260505061031 72 0 0.0 0.0 0.00 0.00 0.00 29 1011.7
20260505060531 72 0 0.0 2.0 0.00 0.00 0.00 29 1011.7
20260505060049 72 0 0.0 2.0 0.00 0.00 0.00 29 1011.7
20260505055529 72 0 0.0 0.0 0.00 0.00 0.00 29 1011.6
20260505055029 72 0 0.0 0.0 0.00 0.00 0.00 29 1011.5
20260505054553 72 0 0.0 0.0 0.00 0.00 0.00 29 1011.4
20260505054028 72 0 0.0 0.0 0.00 0.00 0.00 29 1011.5
20260505053534 72 0 0.0 0.0 0.00 0.00 0.00 29 1011.4
20260505053056 72 0 0.0 0.0 0.00 0.00 0.00 31 1011.5
20260505052533 73 0 0.0 0.0 0.00 0.00 0.00 31 1011.5
20260505052031 73 0 0.0 0.0 0.00 0.00 0.00 32 1011.7
20260505051541 73 0 0.0 0.0 0.00 0.00 0.00 33 1011.7
20260505051033 73 0 0.0 0.0 0.00 0.00 0.00 32 1011.7
20260505050532 73 0 0.0 0.0 0.00 0.00 0.00 33 1011.8
20260505041553 73 0 0.0 0.0 0.00 0.00 0.00 33 1011.9
20260505041032 73 0 0.0 0.0 0.00 0.00 0.00 33 1011.8
20260505040531 73 0 0.0 0.0 0.00 0.00 0.00 34 1011.7
20260505040052 73 0 0.0 0.0 0.00 0.00 0.00 34 1011.8
20260505035531 73 0 0.0 1.0 0.00 0.00 0.00 34 1011.9
20260505035031 73 0 0.0 1.0 0.00 0.00 0.00 34 1011.8
20260505034545 73 0 0.0 1.0 0.00 0.00 0.00 34 1011.8
20260505034029 73 0 0.0 1.0 0.00 0.00 0.00 34 1011.9
20260505033528 73 0 0.0 1.0 0.00 0.00 0.00 34 1011.8
20260505033045 73 0 0.0 0.0 0.00 0.00 0.00 35 1011.7
20260505032528 73 0 0.0 0.0 0.00 0.00 0.00 34 1011.3
20260505032027 73 0 0.0 0.0 0.00 0.00 0.00 34 1011.2
20260505031553 73 0 0.0 0.0 0.00 0.00 0.00 33 1011.1
20260505031027 73 0 0.0 0.0 0.00 0.00 0.00 32 1011.1
20260505030531 74 0 0.0 0.0 0.00 0.00 0.00 32 1011.1
20260505030043 74 0 0.0 0.0 0.00 0.00 0.00 32 1011.0
20260505025528 74 0 0.0 0.0 0.00 0.00 0.00 31 1010.9
20260505025029 74 0 0.0 0.0 0.00 0.00 0.00 31 1011.0
20260505024556 74 0 0.0 0.0 0.00 0.00 0.00 30 1010.9
20260505024031 74 0 0.0 0.0 0.00 0.00 0.00 30 1010.9
20260505023531 74 0 0.0 0.0 0.00 0.00 0.00 30 1010.8
20260505023046 75 0 0.0 0.0 0.00 0.00 0.00 32 1010.8
20260505022530 75 0 0.0 0.0 0.00 0.00 0.00 32 1010.8
20260505022031 75 0 0.0 0.0 0.00 0.00 0.00 32 1010.8
20260505021547 75 0 0.0 0.0 0.00 0.00 0.00 32 1011.0
20260505021027 75 0 0.0 0.0 0.00 0.00 0.00 32 1010.9
20260505020528 75 0 0.0 0.0 0.00 0.00 0.00 31 1010.9
20260505020044 75 0 0.0 0.0 0.00 0.00 0.00 32 1010.9
20260505015528 75 0 0.0 0.0 0.00 0.00 0.00 32 1010.8
20260505015028 75 0 0.0 0.0 0.00 0.00 0.00 32 1010.9
20260505014601 75 0 0.0 0.0 0.00 0.00 0.00 31 1010.9
20260505014030 75 0 0.0 0.0 0.00 0.00 0.00 31 1010.9
20260505013527 76 0 0.0 0.0 0.00 0.00 0.00 32 1010.9
20260505013041 76 0 0.0 0.0 0.00 0.00 0.00 32 1010.8
20260505012531 76 0 0.0 0.0 0.00 0.00 0.00 32 1010.7
20260505012029 76 0 0.0 0.0 0.00 0.00 0.00 32 1010.9
20260505011556 76 0 0.0 0.0 0.00 0.00 0.00 33 1011.0
20260505011029 76 0 0.0 0.0 0.00 0.00 0.00 33 1011.0
20260505010530 76 0 0.0 0.0 0.00 0.00 0.00 33 1010.9
20260505010045 76 0 0.0 0.0 0.00 0.00 0.00 32 1011.0
20260505005530 76 0 0.0 0.0 0.00 0.00 0.00 32 1011.0
20260505005028 77 0 0.0 0.0 0.00 0.00 0.00 32 1011.0
20260505004544 77 0 0.0 0.0 0.00 0.00 0.00 32 1011.0
20260505004027 77 0 0.0 0.0 0.00 0.00 0.00 32 1010.9
20260505003527 77 0 0.0 0.0 0.00 0.00 0.00 31 1011.0
20260505003042 77 0 0.0 0.0 0.00 0.00 0.00 32 1010.9
20260505002527 77 0 0.0 0.0 0.00 0.00 0.00 31 1011.1
20260505002027 77 0 0.0 1.0 0.00 0.00 0.00 31 1011.1
20260505001539 78 0 0.0 1.0 0.00 0.00 0.00 31 1011.1
20260505001030 78 0 0.0 1.0 0.00 0.00 0.00 30 1011.2
20260505000533 78 0 0.0 0.0 0.00 0.00 0.00 30 1011.2
20260505000057 78 0 0.0 0.0 0.00 0.00 0.00 30 1011.3
20260504235531 78 0 0.0 0.0 0.00 0.00 0.00 30 1011.3
20260504235031 78 0 0.0 0.0 0.00 0.00 0.00 30 1011.3
20260504234548 78 0 0.0 0.0 0.00 0.00 0.00 30 1011.3
20260504234028 78 0 0.0 0.0 0.00 0.00 0.00 30 1011.3
20260504233527 78 0 0.0 0.0 0.00 0.00 0.00 30 1011.2
20260504233103 78 0 0.0 0.0 0.00 0.00 0.00 30 1011.3
20260504232528 78 0 0.0 0.0 0.00 0.00 0.00 30 1011.3
20260504232027 78 0 0.0 0.0 0.00 0.00 0.00 29 1011.4
20260504231543 78 0 0.0 0.0 0.00 0.00 0.00 29 1011.3
20260504231027 78 0 0.0 0.0 0.00 0.00 0.00 29 1011.3
20260504230530 78 0 0.0 0.0 0.00 0.00 0.00 29 1011.4
20260504230042 78 0 0.0 0.0 0.00 0.00 0.00 29 1011.3
20260504225530 78 0 0.0 0.0 0.00 0.00 0.00 29 1011.3
20260504225027 78 0 0.0 0.0 0.00 0.00 0.00 29 1011.5
20260504224552 78 0 0.0 0.0 0.00 0.00 0.00 29 1011.5
20260504224027 78 0 0.0 0.0 0.00 0.00 0.00 29 1011.5
20260504223529 78 0 0.0 0.0 0.00 0.00 0.00 29 1011.6
20260504223100 78 0 0.0 0.0 0.00 0.00 0.00 29 1011.5
20260504222530 78 0 0.0 0.0 0.00 0.00 0.00 29 1011.7
20260504222027 78 0 0.0 0.0 0.00 0.00 0.00 29 1011.8
20260504221543 78 0 0.0 1.0 0.00 0.00 0.00 29 1011.9
20260504221027 78 0 0.0 1.0 0.00 0.00 0.00 30 1011.9
20260504220528 78 0 0.0 1.0 0.00 0.00 0.00 30 1011.8
20260504220042 77 0 0.0 1.0 0.00 0.00 0.00 30 1011.9
20260504215527 77 0 0.0 1.0 0.00 0.00 0.00 31 1012.0
20260504215026 77 0 0.0 0.0 0.00 0.00 0.00 31 1012.2
20260504214544 77 0 0.0 1.0 0.00 0.00 0.00 32 1012.2
20260504214029 77 0 0.0 1.0 0.00 0.00 0.00 32 1012.2
20260504213530 76 0 0.0 0.0 0.00 0.00 0.00 33 1012.1
20260504213055 76 0 0.0 1.0 0.00 0.00 0.00 34 1012.3
20260504212531 76 0 0.0 1.0 0.00 0.00 0.00 34 1012.4
20260504212032 76 0 0.0 0.0 0.00 0.00 0.00 34 1012.4
20260504211546 76 0 0.0 2.0 0.00 0.00 0.00 34 1012.6
20260504211032 76 0 0.0 2.0 0.00 0.00 0.00 34 1012.6
20260504210536 76 0 0.0 2.0 0.00 0.00 0.00 34 1012.8
20260504210047 76 0 0.0 0.0 0.00 0.00 0.00 34 1012.8
20260504205533 76 0 0.0 1.0 0.00 0.00 0.00 33 1012.8
20260504205033 76 0 0.0 1.0 0.00 0.00 0.00 33 1012.8